sensor_id;sensor_type;location;lat;lon;timestamp;P1;durP1;ratioP1;P2;durP2;ratioP2
46084;SDS011;31823;47.032;8.310;2023-02-12T00:01:27;30.25;;;19.13;;
46084;SDS011;31823;47.032;8.310;2023-02-12T00:03:52;32.80;;;20.10;;
46084;SDS011;31823;47.032;8.310;2023-02-12T00:06:18;29.20;;;17.92;;
46084;SDS011;31823;47.032;8.310;2023-02-12T00:08:44;31.80;;;20.02;;
46084;SDS011;31823;47.032;8.310;2023-02-12T00:11:13;31.58;;;19.02;;
46084;SDS011;31823;47.032;8.310;2023-02-12T00:13:41;29.45;;;18.23;;
46084;SDS011;31823;47.032;8.310;2023-02-12T00:16:07;29.08;;;18.38;;
46084;SDS011;31823;47.032;8.310;2023-02-12T00:18:35;29.90;;;18.02;;
46084;SDS011;31823;47.032;8.310;2023-02-12T00:21:01;31.23;;;18.38;;
46084;SDS011;31823;47.032;8.310;2023-02-12T00:23:27;24.90;;;16.50;;
46084;SDS011;31823;47.032;8.310;2023-02-12T00:25:53;31.13;;;17.70;;
46084;SDS011;31823;47.032;8.310;2023-02-12T00:28:19;27.23;;;16.50;;
46084;SDS011;31823;47.032;8.310;2023-02-12T00:30:45;25.58;;;16.48;;
46084;SDS011;31823;47.032;8.310;2023-02-12T00:33:13;23.83;;;16.88;;
46084;SDS011;31823;47.032;8.310;2023-02-12T00:35:59;26.00;;;15.55;;
46084;SDS011;31823;47.032;8.310;2023-02-12T00:38:25;28.08;;;16.25;;
46084;SDS011;31823;47.032;8.310;2023-02-12T00:40:50;24.50;;;15.13;;
46084;SDS011;31823;47.032;8.310;2023-02-12T00:43:16;23.70;;;15.02;;
46084;SDS011;31823;47.032;8.310;2023-02-12T00:45:43;22.05;;;14.90;;
46084;SDS011;31823;47.032;8.310;2023-02-12T00:48:09;19.85;;;13.82;;
46084;SDS011;31823;47.032;8.310;2023-02-12T00:50:35;18.80;;;11.75;;
46084;SDS011;31823;47.032;8.310;2023-02-12T00:53:01;19.00;;;12.00;;
46084;SDS011;31823;47.032;8.310;2023-02-12T00:55:26;18.35;;;11.52;;
46084;SDS011;31823;47.032;8.310;2023-02-12T00:57:52;15.85;;;10.15;;
46084;SDS011;31823;47.032;8.310;2023-02-12T01:00:18;15.40;;;10.25;;
46084;SDS011;31823;47.032;8.310;2023-02-12T01:02:43;16.67;;;10.50;;
46084;SDS011;31823;47.032;8.310;2023-02-12T01:05:09;18.65;;;11.48;;
46084;SDS011;31823;47.032;8.310;2023-02-12T01:07:35;22.20;;;12.10;;
46084;SDS011;31823;47.032;8.310;2023-02-12T01:10:02;18.45;;;12.05;;
46084;SDS011;31823;47.032;8.310;2023-02-12T01:12:29;19.60;;;11.50;;
46084;SDS011;31823;47.032;8.310;2023-02-12T01:14:55;20.58;;;11.70;;
46084;SDS011;31823;47.032;8.310;2023-02-12T01:17:20;16.65;;;11.07;;
46084;SDS011;31823;47.032;8.310;2023-02-12T01:19:46;22.35;;;13.30;;
46084;SDS011;31823;47.032;8.310;2023-02-12T01:22:11;17.58;;;11.68;;
46084;SDS011;31823;47.032;8.310;2023-02-12T01:24:37;20.60;;;12.63;;
46084;SDS011;31823;47.032;8.310;2023-02-12T01:27:03;19.60;;;13.18;;
46084;SDS011;31823;47.032;8.310;2023-02-12T01:29:28;18.25;;;12.25;;
46084;SDS011;31823;47.032;8.310;2023-02-12T01:31:54;21.48;;;12.40;;
46084;SDS011;31823;47.032;8.310;2023-02-12T01:34:20;20.92;;;13.32;;
46084;SDS011;31823;47.032;8.310;2023-02-12T01:36:45;19.38;;;13.18;;
46084;SDS011;31823;47.032;8.310;2023-02-12T01:39:11;20.38;;;13.10;;
46084;SDS011;31823;47.032;8.310;2023-02-12T01:41:41;24.60;;;14.68;;
46084;SDS011;31823;47.032;8.310;2023-02-12T01:44:15;23.08;;;13.55;;
46084;SDS011;31823;47.032;8.310;2023-02-12T01:46:59;19.50;;;12.95;;
46084;SDS011;31823;47.032;8.310;2023-02-12T01:49:34;23.88;;;14.52;;
46084;SDS011;31823;47.032;8.310;2023-02-12T01:52:04;17.02;;;10.18;;
46084;SDS011;31823;47.032;8.310;2023-02-12T01:54:44;24.58;;;13.50;;
46084;SDS011;31823;47.032;8.310;2023-02-12T01:57:10;18.73;;;12.77;;
46084;SDS011;31823;47.032;8.310;2023-02-12T01:59:37;26.63;;;13.93;;
46084;SDS011;31823;47.032;8.310;2023-02-12T02:02:07;21.88;;;13.55;;
46084;SDS011;31823;47.032;8.310;2023-02-12T02:04:37;22.92;;;14.20;;
46084;SDS011;31823;47.032;8.310;2023-02-12T02:07:06;25.75;;;15.43;;
46084;SDS011;31823;47.032;8.310;2023-02-12T02:09:34;25.30;;;15.75;;
46084;SDS011;31823;47.032;8.310;2023-02-12T02:12:02;24.42;;;15.63;;
46084;SDS011;31823;47.032;8.310;2023-02-12T02:14:47;27.77;;;15.98;;
46084;SDS011;31823;47.032;8.310;2023-02-12T02:33:18;24.27;;;14.90;;
46084;SDS011;31823;47.032;8.310;2023-02-12T02:42:07;24.35;;;14.20;;
46084;SDS011;31823;47.032;8.310;2023-02-12T02:44:42;24.73;;;13.68;;
46084;SDS011;31823;47.032;8.310;2023-02-12T02:47:14;24.15;;;13.30;;
46084;SDS011;31823;47.032;8.310;2023-02-12T02:49:44;21.15;;;12.60;;
46084;SDS011;31823;47.032;8.310;2023-02-12T02:52:17;28.48;;;16.63;;
46084;SDS011;31823;47.032;8.310;2023-02-12T02:55:01;29.58;;;16.90;;
46084;SDS011;31823;47.032;8.310;2023-02-12T02:57:34;25.50;;;15.93;;
46084;SDS011;31823;47.032;8.310;2023-02-12T03:00:12;23.67;;;14.20;;
46084;SDS011;31823;47.032;8.310;2023-02-12T03:03:18;22.23;;;13.50;;
46084;SDS011;31823;47.032;8.310;2023-02-12T03:06:09;21.75;;;13.75;;
46084;SDS011;31823;47.032;8.310;2023-02-12T03:08:51;23.77;;;14.55;;
46084;SDS011;31823;47.032;8.310;2023-02-12T03:11:26;27.02;;;15.80;;
46084;SDS011;31823;47.032;8.310;2023-02-12T03:16:32;29.80;;;18.25;;
46084;SDS011;31823;47.032;8.310;2023-02-12T03:21:42;39.65;;;22.13;;
46084;SDS011;31823;47.032;8.310;2023-02-12T03:27:12;36.45;;;22.50;;
46084;SDS011;31823;47.032;8.310;2023-02-12T03:29:44;40.05;;;23.65;;
46084;SDS011;31823;47.032;8.310;2023-02-12T03:37:55;50.00;;;24.20;;
46084;SDS011;31823;47.032;8.310;2023-02-12T03:40:26;42.08;;;24.33;;
46084;SDS011;31823;47.032;8.310;2023-02-12T03:43:24;39.63;;;24.17;;
46084;SDS011;31823;47.032;8.310;2023-02-12T03:53:33;41.72;;;25.35;;
46084;SDS011;31823;47.032;8.310;2023-02-12T03:56:01;42.42;;;25.17;;
46084;SDS011;31823;47.032;8.310;2023-02-12T03:58:35;40.88;;;24.80;;
46084;SDS011;31823;47.032;8.310;2023-02-12T04:01:02;33.10;;;21.27;;
46084;SDS011;31823;47.032;8.310;2023-02-12T04:03:29;39.72;;;22.25;;
46084;SDS011;31823;47.032;8.310;2023-02-12T04:05:55;39.05;;;20.55;;
46084;SDS011;31823;47.032;8.310;2023-02-12T04:08:21;31.42;;;19.50;;
46084;SDS011;31823;47.032;8.310;2023-02-12T04:10:55;32.45;;;19.60;;
46084;SDS011;31823;47.032;8.310;2023-02-12T04:19:08;36.15;;;21.23;;
46084;SDS011;31823;47.032;8.310;2023-02-12T04:21:51;51.97;;;21.65;;
46084;SDS011;31823;47.032;8.310;2023-02-12T04:30:04;46.22;;;24.75;;
46084;SDS011;31823;47.032;8.310;2023-02-12T04:32:37;44.95;;;25.40;;
46084;SDS011;31823;47.032;8.310;2023-02-12T04:37:41;48.60;;;26.60;;
46084;SDS011;31823;47.032;8.310;2023-02-12T04:40:12;47.85;;;28.27;;
46084;SDS011;31823;47.032;8.310;2023-02-12T04:42:41;53.03;;;29.75;;
46084;SDS011;31823;47.032;8.310;2023-02-12T04:45:13;47.97;;;26.80;;
46084;SDS011;31823;47.032;8.310;2023-02-12T04:47:41;48.00;;;25.45;;
46084;SDS011;31823;47.032;8.310;2023-02-12T04:50:07;40.60;;;23.83;;
46084;SDS011;31823;47.032;8.310;2023-02-12T04:52:33;37.53;;;22.75;;
46084;SDS011;31823;47.032;8.310;2023-02-12T04:54:58;38.03;;;22.73;;
46084;SDS011;31823;47.032;8.310;2023-02-12T04:57:24;37.63;;;21.50;;
46084;SDS011;31823;47.032;8.310;2023-02-12T04:59:49;38.13;;;20.73;;
46084;SDS011;31823;47.032;8.310;2023-02-12T05:02:15;33.70;;;19.02;;
46084;SDS011;31823;47.032;8.310;2023-02-12T05:04:41;38.58;;;20.35;;
46084;SDS011;31823;47.032;8.310;2023-02-12T05:07:06;30.50;;;18.85;;
46084;SDS011;31823;47.032;8.310;2023-02-12T05:09:32;37.88;;;20.08;;
46084;SDS011;31823;47.032;8.310;2023-02-12T05:11:57;37.45;;;19.65;;
46084;SDS011;31823;47.032;8.310;2023-02-12T05:14:23;33.53;;;19.95;;
46084;SDS011;31823;47.032;8.310;2023-02-12T05:16:49;33.72;;;21.00;;
46084;SDS011;31823;47.032;8.310;2023-02-12T05:19:15;39.50;;;21.20;;
46084;SDS011;31823;47.032;8.310;2023-02-12T05:21:41;36.25;;;21.02;;
46084;SDS011;31823;47.032;8.310;2023-02-12T05:24:07;38.25;;;22.10;;
46084;SDS011;31823;47.032;8.310;2023-02-12T05:26:32;33.63;;;20.50;;
46084;SDS011;31823;47.032;8.310;2023-02-12T05:28:58;37.13;;;21.83;;
46084;SDS011;31823;47.032;8.310;2023-02-12T05:31:24;38.13;;;22.05;;
46084;SDS011;31823;47.032;8.310;2023-02-12T05:33:50;41.30;;;22.45;;
46084;SDS011;31823;47.032;8.310;2023-02-12T05:36:17;40.90;;;22.30;;
46084;SDS011;31823;47.032;8.310;2023-02-12T05:38:44;42.35;;;24.88;;
46084;SDS011;31823;47.032;8.310;2023-02-12T05:41:11;38.97;;;23.42;;
46084;SDS011;31823;47.032;8.310;2023-02-12T05:43:42;38.95;;;22.17;;
46084;SDS011;31823;47.032;8.310;2023-02-12T05:46:08;42.15;;;24.65;;
46084;SDS011;31823;47.032;8.310;2023-02-12T05:48:35;44.08;;;25.20;;
46084;SDS011;31823;47.032;8.310;2023-02-12T05:51:23;44.45;;;24.75;;
46084;SDS011;31823;47.032;8.310;2023-02-12T05:53:48;51.85;;;29.58;;
46084;SDS011;31823;47.032;8.310;2023-02-12T05:56:18;52.97;;;30.45;;
46084;SDS011;31823;47.032;8.310;2023-02-12T05:58:51;59.53;;;31.00;;
46084;SDS011;31823;47.032;8.310;2023-02-12T06:01:38;57.38;;;30.80;;
46084;SDS011;31823;47.032;8.310;2023-02-12T06:04:07;61.65;;;32.05;;
46084;SDS011;31823;47.032;8.310;2023-02-12T06:06:37;56.47;;;31.85;;
46084;SDS011;31823;47.032;8.310;2023-02-12T06:09:06;53.80;;;30.50;;
46084;SDS011;31823;47.032;8.310;2023-02-12T06:11:32;50.53;;;29.55;;
46084;SDS011;31823;47.032;8.310;2023-02-12T06:14:00;54.42;;;30.70;;
46084;SDS011;31823;47.032;8.310;2023-02-12T06:16:27;63.72;;;35.05;;
46084;SDS011;31823;47.032;8.310;2023-02-12T06:18:53;64.38;;;34.75;;
46084;SDS011;31823;47.032;8.310;2023-02-12T06:21:20;58.30;;;33.92;;
46084;SDS011;31823;47.032;8.310;2023-02-12T06:23:47;77.20;;;39.40;;
46084;SDS011;31823;47.032;8.310;2023-02-12T06:26:14;75.13;;;39.72;;
46084;SDS011;31823;47.032;8.310;2023-02-12T06:28:40;74.90;;;41.58;;
46084;SDS011;31823;47.032;8.310;2023-02-12T06:31:16;74.05;;;37.85;;
46084;SDS011;31823;47.032;8.310;2023-02-12T06:33:44;55.55;;;31.55;;
46084;SDS011;31823;47.032;8.310;2023-02-12T06:36:10;46.50;;;27.88;;
46084;SDS011;31823;47.032;8.310;2023-02-12T06:38:35;52.85;;;30.13;;
46084;SDS011;31823;47.032;8.310;2023-02-12T06:41:01;66.88;;;36.53;;
46084;SDS011;31823;47.032;8.310;2023-02-12T06:43:28;73.38;;;40.05;;
46084;SDS011;31823;47.032;8.310;2023-02-12T06:45:53;72.80;;;39.78;;
46084;SDS011;31823;47.032;8.310;2023-02-12T06:48:19;72.05;;;39.10;;
46084;SDS011;31823;47.032;8.310;2023-02-12T06:50:45;79.13;;;41.33;;
46084;SDS011;31823;47.032;8.310;2023-02-12T06:53:10;74.82;;;40.22;;
46084;SDS011;31823;47.032;8.310;2023-02-12T06:55:36;80.82;;;42.70;;
46084;SDS011;31823;47.032;8.310;2023-02-12T06:58:01;87.32;;;45.63;;
46084;SDS011;31823;47.032;8.310;2023-02-12T07:00:27;88.18;;;43.55;;
46084;SDS011;31823;47.032;8.310;2023-02-12T07:02:56;84.53;;;45.28;;
46084;SDS011;31823;47.032;8.310;2023-02-12T07:05:22;79.95;;;43.15;;
46084;SDS011;31823;47.032;8.310;2023-02-12T07:07:48;72.45;;;41.45;;
46084;SDS011;31823;47.032;8.310;2023-02-12T07:10:14;83.85;;;41.80;;
46084;SDS011;31823;47.032;8.310;2023-02-12T07:12:41;82.55;;;42.25;;
46084;SDS011;31823;47.032;8.310;2023-02-12T07:15:06;76.70;;;41.58;;
46084;SDS011;31823;47.032;8.310;2023-02-12T07:17:32;79.78;;;41.80;;
46084;SDS011;31823;47.032;8.310;2023-02-12T07:19:58;75.68;;;40.92;;
46084;SDS011;31823;47.032;8.310;2023-02-12T07:22:24;79.35;;;42.03;;
46084;SDS011;31823;47.032;8.310;2023-02-12T07:24:49;75.28;;;39.10;;
46084;SDS011;31823;47.032;8.310;2023-02-12T07:27:15;78.75;;;41.33;;
46084;SDS011;31823;47.032;8.310;2023-02-12T07:29:41;75.78;;;41.60;;
46084;SDS011;31823;47.032;8.310;2023-02-12T07:32:07;74.43;;;40.85;;
46084;SDS011;31823;47.032;8.310;2023-02-12T07:34:33;78.15;;;41.13;;
46084;SDS011;31823;47.032;8.310;2023-02-12T07:36:58;75.68;;;41.33;;
46084;SDS011;31823;47.032;8.310;2023-02-12T07:39:24;74.38;;;40.05;;
46084;SDS011;31823;47.032;8.310;2023-02-12T07:41:49;69.20;;;39.38;;
46084;SDS011;31823;47.032;8.310;2023-02-12T07:44:15;74.20;;;40.20;;
46084;SDS011;31823;47.032;8.310;2023-02-12T07:46:42;74.10;;;40.08;;
46084;SDS011;31823;47.032;8.310;2023-02-12T07:49:11;73.95;;;38.95;;
46084;SDS011;31823;47.032;8.310;2023-02-12T07:51:38;69.55;;;39.13;;
46084;SDS011;31823;47.032;8.310;2023-02-12T07:54:04;70.30;;;38.70;;
46084;SDS011;31823;47.032;8.310;2023-02-12T07:56:31;72.25;;;39.33;;
46084;SDS011;31823;47.032;8.310;2023-02-12T07:59:00;74.80;;;40.22;;
46084;SDS011;31823;47.032;8.310;2023-02-12T08:01:31;63.72;;;35.30;;
46084;SDS011;31823;47.032;8.310;2023-02-12T08:04:06;64.80;;;36.78;;
46084;SDS011;31823;47.032;8.310;2023-02-12T08:06:38;62.95;;;35.33;;
46084;SDS011;31823;47.032;8.310;2023-02-12T08:09:11;66.28;;;35.08;;
46084;SDS011;31823;47.032;8.310;2023-02-12T08:11:38;64.38;;;34.45;;
46084;SDS011;31823;47.032;8.310;2023-02-12T08:14:05;61.10;;;33.33;;
46084;SDS011;31823;47.032;8.310;2023-02-12T08:16:34;64.35;;;35.80;;
46084;SDS011;31823;47.032;8.310;2023-02-12T08:19:02;55.95;;;33.50;;
46084;SDS011;31823;47.032;8.310;2023-02-12T08:21:28;59.10;;;33.83;;
46084;SDS011;31823;47.032;8.310;2023-02-12T08:23:54;62.05;;;35.10;;
46084;SDS011;31823;47.032;8.310;2023-02-12T08:26:22;58.15;;;31.88;;
46084;SDS011;31823;47.032;8.310;2023-02-12T08:28:59;54.47;;;31.45;;
46084;SDS011;31823;47.032;8.310;2023-02-12T08:31:30;57.15;;;30.55;;
46084;SDS011;31823;47.032;8.310;2023-02-12T08:33:57;50.85;;;29.02;;
46084;SDS011;31823;47.032;8.310;2023-02-12T08:36:25;46.83;;;28.33;;
46084;SDS011;31823;47.032;8.310;2023-02-12T08:38:52;46.22;;;28.02;;
46084;SDS011;31823;47.032;8.310;2023-02-12T08:41:19;49.47;;;26.75;;
46084;SDS011;31823;47.032;8.310;2023-02-12T08:43:47;45.72;;;26.60;;
46084;SDS011;31823;47.032;8.310;2023-02-12T08:46:17;46.17;;;26.77;;
46084;SDS011;31823;47.032;8.310;2023-02-12T08:48:45;46.45;;;27.00;;
46084;SDS011;31823;47.032;8.310;2023-02-12T08:53:42;41.53;;;24.98;;
46084;SDS011;31823;47.032;8.310;2023-02-12T08:56:09;41.00;;;25.30;;
46084;SDS011;31823;47.032;8.310;2023-02-12T08:58:35;40.97;;;24.35;;
46084;SDS011;31823;47.032;8.310;2023-02-12T09:01:02;37.50;;;24.30;;
46084;SDS011;31823;47.032;8.310;2023-02-12T09:03:29;42.13;;;24.88;;
46084;SDS011;31823;47.032;8.310;2023-02-12T09:05:55;36.47;;;24.35;;
46084;SDS011;31823;47.032;8.310;2023-02-12T09:08:21;40.70;;;23.88;;
46084;SDS011;31823;47.032;8.310;2023-02-12T09:10:46;50.60;;;29.67;;
46084;SDS011;31823;47.032;8.310;2023-02-12T09:13:12;49.63;;;28.73;;
46084;SDS011;31823;47.032;8.310;2023-02-12T09:15:39;47.25;;;29.30;;
46084;SDS011;31823;47.032;8.310;2023-02-12T09:18:07;47.47;;;28.52;;
46084;SDS011;31823;47.032;8.310;2023-02-12T09:20:35;47.90;;;28.88;;
46084;SDS011;31823;47.032;8.310;2023-02-12T09:23:06;52.47;;;31.48;;
46084;SDS011;31823;47.032;8.310;2023-02-12T09:25:33;46.75;;;29.27;;
46084;SDS011;31823;47.032;8.310;2023-02-12T09:28:00;51.88;;;29.83;;
46084;SDS011;31823;47.032;8.310;2023-02-12T09:30:26;50.97;;;28.77;;
46084;SDS011;31823;47.032;8.310;2023-02-12T09:32:52;47.38;;;27.45;;
46084;SDS011;31823;47.032;8.310;2023-02-12T09:35:18;41.88;;;27.50;;
46084;SDS011;31823;47.032;8.310;2023-02-12T09:37:44;41.17;;;26.20;;
46084;SDS011;31823;47.032;8.310;2023-02-12T09:40:15;45.38;;;29.13;;
46084;SDS011;31823;47.032;8.310;2023-02-12T09:45:43;42.58;;;28.33;;
46084;SDS011;31823;47.032;8.310;2023-02-12T09:51:04;40.65;;;26.58;;
46084;SDS011;31823;47.032;8.310;2023-02-12T09:53:34;39.03;;;26.17;;
46084;SDS011;31823;47.032;8.310;2023-02-12T09:56:20;42.85;;;29.83;;
46084;SDS011;31823;47.032;8.310;2023-02-12T10:01:19;49.40;;;29.88;;
46084;SDS011;31823;47.032;8.310;2023-02-12T10:03:46;46.28;;;29.65;;
46084;SDS011;31823;47.032;8.310;2023-02-12T10:11:44;44.58;;;28.70;;
46084;SDS011;31823;47.032;8.310;2023-02-12T10:22:55;47.35;;;30.30;;
46084;SDS011;31823;47.032;8.310;2023-02-12T10:25:47;46.55;;;30.90;;
46084;SDS011;31823;47.032;8.310;2023-02-12T10:28:23;46.47;;;30.42;;
46084;SDS011;31823;47.032;8.310;2023-02-12T10:30:56;48.42;;;31.98;;
46084;SDS011;31823;47.032;8.310;2023-02-12T10:33:27;46.58;;;31.23;;
46084;SDS011;31823;47.032;8.310;2023-02-12T10:36:24;47.70;;;31.55;;
46084;SDS011;31823;47.032;8.310;2023-02-12T10:38:42;51.25;;;31.80;;
46084;SDS011;31823;47.032;8.310;2023-02-12T10:41:13;51.72;;;31.42;;
46084;SDS011;31823;47.032;8.310;2023-02-12T10:43:40;47.10;;;30.73;;
46084;SDS011;31823;47.032;8.310;2023-02-12T10:46:09;47.70;;;31.20;;
46084;SDS011;31823;47.032;8.310;2023-02-12T10:48:39;48.90;;;30.27;;
46084;SDS011;31823;47.032;8.310;2023-02-12T10:53:37;48.13;;;30.88;;
46084;SDS011;31823;47.032;8.310;2023-02-12T10:58:41;45.70;;;30.83;;
46084;SDS011;31823;47.032;8.310;2023-02-12T11:01:25;48.28;;;30.90;;
46084;SDS011;31823;47.032;8.310;2023-02-12T11:03:52;43.75;;;29.92;;
46084;SDS011;31823;47.032;8.310;2023-02-12T11:06:24;41.38;;;30.33;;
46084;SDS011;31823;47.032;8.310;2023-02-12T11:08:52;41.80;;;28.17;;
46084;SDS011;31823;47.032;8.310;2023-02-12T11:13:45;43.38;;;28.33;;
46084;SDS011;31823;47.032;8.310;2023-02-12T11:16:25;41.22;;;29.80;;
46084;SDS011;31823;47.032;8.310;2023-02-12T11:19:24;40.67;;;29.38;;
46084;SDS011;31823;47.032;8.310;2023-02-12T11:21:49;41.10;;;29.65;;
46084;SDS011;31823;47.032;8.310;2023-02-12T11:26:50;40.75;;;29.00;;
46084;SDS011;31823;47.032;8.310;2023-02-12T11:29:17;41.00;;;28.60;;
46084;SDS011;31823;47.032;8.310;2023-02-12T11:31:59;42.10;;;29.17;;
46084;SDS011;31823;47.032;8.310;2023-02-12T11:34:27;40.25;;;28.23;;
46084;SDS011;31823;47.032;8.310;2023-02-12T11:36:53;38.00;;;27.38;;
46084;SDS011;31823;47.032;8.310;2023-02-12T11:39:23;37.90;;;27.67;;
46084;SDS011;31823;47.032;8.310;2023-02-12T11:41:59;35.88;;;25.55;;
46084;SDS011;31823;47.032;8.310;2023-02-12T11:44:29;36.05;;;25.63;;
46084;SDS011;31823;47.032;8.310;2023-02-12T11:47:01;33.30;;;22.40;;
46084;SDS011;31823;47.032;8.310;2023-02-12T11:49:42;33.63;;;23.17;;
46084;SDS011;31823;47.032;8.310;2023-02-12T11:52:39;35.03;;;25.13;;
46084;SDS011;31823;47.032;8.310;2023-02-12T11:55:10;37.70;;;24.58;;
46084;SDS011;31823;47.032;8.310;2023-02-12T11:57:46;37.90;;;25.52;;
46084;SDS011;31823;47.032;8.310;2023-02-12T12:00:21;36.75;;;23.55;;
46084;SDS011;31823;47.032;8.310;2023-02-12T12:02:56;34.30;;;23.08;;
46084;SDS011;31823;47.032;8.310;2023-02-12T12:05:34;33.83;;;23.42;;
46084;SDS011;31823;47.032;8.310;2023-02-12T12:08:05;35.80;;;23.42;;
46084;SDS011;31823;47.032;8.310;2023-02-12T12:10:39;37.83;;;25.27;;
46084;SDS011;31823;47.032;8.310;2023-02-12T12:13:12;35.60;;;24.92;;
46084;SDS011;31823;47.032;8.310;2023-02-12T12:15:45;33.60;;;23.35;;
46084;SDS011;31823;47.032;8.310;2023-02-12T12:18:36;39.97;;;25.67;;
46084;SDS011;31823;47.032;8.310;2023-02-12T12:24:31;33.33;;;22.23;;
46084;SDS011;31823;47.032;8.310;2023-02-12T12:27:18;36.05;;;24.45;;
46084;SDS011;31823;47.032;8.310;2023-02-12T12:30:07;39.13;;;25.88;;
46084;SDS011;31823;47.032;8.310;2023-02-12T12:32:47;36.95;;;25.08;;
46084;SDS011;31823;47.032;8.310;2023-02-12T12:35:17;34.08;;;24.38;;
46084;SDS011;31823;47.032;8.310;2023-02-12T12:38:03;40.35;;;27.50;;
46084;SDS011;31823;47.032;8.310;2023-02-12T12:40:53;40.13;;;27.48;;
46084;SDS011;31823;47.032;8.310;2023-02-12T13:00:49;35.70;;;25.33;;
46084;SDS011;31823;47.032;8.310;2023-02-12T13:17:20;28.58;;;20.63;;
46084;SDS011;31823;47.032;8.310;2023-02-12T13:25:33;26.60;;;21.02;;
46084;SDS011;31823;47.032;8.310;2023-02-12T13:28:08;26.58;;;20.92;;
46084;SDS011;31823;47.032;8.310;2023-02-12T13:30:41;32.00;;;21.77;;
46084;SDS011;31823;47.032;8.310;2023-02-12T13:33:10;26.98;;;20.95;;
46084;SDS011;31823;47.032;8.310;2023-02-12T13:35:40;29.40;;;22.73;;
46084;SDS011;31823;47.032;8.310;2023-02-12T13:38:14;32.75;;;24.20;;
46084;SDS011;31823;47.032;8.310;2023-02-12T13:40:44;35.20;;;27.42;;
46084;SDS011;31823;47.032;8.310;2023-02-12T13:54:19;29.60;;;22.73;;
46084;SDS011;31823;47.032;8.310;2023-02-12T13:57:12;29.55;;;24.00;;
46084;SDS011;31823;47.032;8.310;2023-02-12T13:59:41;29.63;;;24.08;;
46084;SDS011;31823;47.032;8.310;2023-02-12T14:05:03;29.17;;;23.38;;
46084;SDS011;31823;47.032;8.310;2023-02-12T14:12:47;26.20;;;22.67;;
46084;SDS011;31823;47.032;8.310;2023-02-12T14:18:19;30.33;;;23.50;;
46084;SDS011;31823;47.032;8.310;2023-02-12T14:20:46;30.40;;;23.75;;
46084;SDS011;31823;47.032;8.310;2023-02-12T14:23:22;29.52;;;24.30;;
46084;SDS011;31823;47.032;8.310;2023-02-12T14:25:58;28.80;;;23.45;;
46084;SDS011;31823;47.032;8.310;2023-02-12T14:33:50;33.13;;;25.30;;
46084;SDS011;31823;47.032;8.310;2023-02-12T14:36:46;30.70;;;24.38;;
46084;SDS011;31823;47.032;8.310;2023-02-12T14:41:44;27.30;;;21.98;;
46084;SDS011;31823;47.032;8.310;2023-02-12T14:49:47;29.83;;;23.30;;
46084;SDS011;31823;47.032;8.310;2023-02-12T14:52:17;30.65;;;25.05;;
46084;SDS011;31823;47.032;8.310;2023-02-12T14:57:17;32.65;;;24.02;;
46084;SDS011;31823;47.032;8.310;2023-02-12T14:59:51;31.20;;;23.58;;
46084;SDS011;31823;47.032;8.310;2023-02-12T15:02:23;31.30;;;24.75;;
46084;SDS011;31823;47.032;8.310;2023-02-12T15:04:58;37.25;;;26.48;;
46084;SDS011;31823;47.032;8.310;2023-02-12T15:07:30;33.25;;;25.70;;
46084;SDS011;31823;47.032;8.310;2023-02-12T15:10:03;34.78;;;24.98;;
46084;SDS011;31823;47.032;8.310;2023-02-12T15:15:14;36.65;;;25.90;;
46084;SDS011;31823;47.032;8.310;2023-02-12T15:17:58;33.17;;;23.95;;
46084;SDS011;31823;47.032;8.310;2023-02-12T15:20:42;39.03;;;25.23;;
46084;SDS011;31823;47.032;8.310;2023-02-12T15:23:29;33.80;;;23.50;;
46084;SDS011;31823;47.032;8.310;2023-02-12T15:26:03;35.10;;;25.05;;
46084;SDS011;31823;47.032;8.310;2023-02-12T15:28:31;39.33;;;26.75;;
46084;SDS011;31823;47.032;8.310;2023-02-12T15:31:00;33.65;;;24.35;;
46084;SDS011;31823;47.032;8.310;2023-02-12T15:33:30;36.30;;;24.10;;
46084;SDS011;31823;47.032;8.310;2023-02-12T15:35:58;34.33;;;23.13;;
46084;SDS011;31823;47.032;8.310;2023-02-12T15:38:36;29.55;;;22.45;;
46084;SDS011;31823;47.032;8.310;2023-02-12T15:41:05;30.08;;;21.63;;
46084;SDS011;31823;47.032;8.310;2023-02-12T15:43:33;28.25;;;19.95;;
46084;SDS011;31823;47.032;8.310;2023-02-12T15:46:04;29.98;;;20.55;;
46084;SDS011;31823;47.032;8.310;2023-02-12T15:48:32;30.35;;;21.73;;
46084;SDS011;31823;47.032;8.310;2023-02-12T15:51:13;27.02;;;20.60;;
46084;SDS011;31823;47.032;8.310;2023-02-12T15:53:40;29.42;;;21.30;;
46084;SDS011;31823;47.032;8.310;2023-02-12T15:56:20;31.33;;;22.40;;
46084;SDS011;31823;47.032;8.310;2023-02-12T15:58:51;31.65;;;22.50;;
46084;SDS011;31823;47.032;8.310;2023-02-12T16:01:23;32.85;;;22.15;;
46084;SDS011;31823;47.032;8.310;2023-02-12T16:03:51;34.75;;;24.15;;
46084;SDS011;31823;47.032;8.310;2023-02-12T16:06:22;36.83;;;24.23;;
46084;SDS011;31823;47.032;8.310;2023-02-12T16:11:33;36.28;;;24.45;;
46084;SDS011;31823;47.032;8.310;2023-02-12T16:14:01;34.20;;;22.75;;
46084;SDS011;31823;47.032;8.310;2023-02-12T16:16:47;37.13;;;24.80;;
46084;SDS011;31823;47.032;8.310;2023-02-12T16:19:19;39.25;;;23.63;;
46084;SDS011;31823;47.032;8.310;2023-02-12T16:21:52;38.53;;;24.15;;
46084;SDS011;31823;47.032;8.310;2023-02-12T16:27:15;39.78;;;25.50;;
46084;SDS011;31823;47.032;8.310;2023-02-12T16:29:45;41.30;;;24.90;;
46084;SDS011;31823;47.032;8.310;2023-02-12T16:35:02;42.70;;;25.98;;
46084;SDS011;31823;47.032;8.310;2023-02-12T16:37:39;40.83;;;25.40;;
46084;SDS011;31823;47.032;8.310;2023-02-12T16:42:58;43.85;;;26.38;;
46084;SDS011;31823;47.032;8.310;2023-02-12T16:48:08;45.25;;;26.98;;
46084;SDS011;31823;47.032;8.310;2023-02-12T16:50:48;45.58;;;26.48;;
46084;SDS011;31823;47.032;8.310;2023-02-12T16:53:26;45.63;;;27.55;;
46084;SDS011;31823;47.032;8.310;2023-02-12T16:55:56;50.33;;;28.05;;
46084;SDS011;31823;47.032;8.310;2023-02-12T16:58:23;44.33;;;27.38;;
46084;SDS011;31823;47.032;8.310;2023-02-12T17:00:50;43.67;;;27.90;;
46084;SDS011;31823;47.032;8.310;2023-02-12T17:03:17;43.85;;;26.65;;
46084;SDS011;31823;47.032;8.310;2023-02-12T17:05:44;44.35;;;28.65;;
46084;SDS011;31823;47.032;8.310;2023-02-12T17:08:14;50.65;;;29.88;;
46084;SDS011;31823;47.032;8.310;2023-02-12T17:10:42;52.08;;;28.60;;
46084;SDS011;31823;47.032;8.310;2023-02-12T17:13:12;48.28;;;27.95;;
46084;SDS011;31823;47.032;8.310;2023-02-12T17:18:13;48.17;;;26.98;;
46084;SDS011;31823;47.032;8.310;2023-02-12T17:20:39;48.38;;;28.40;;
46084;SDS011;31823;47.032;8.310;2023-02-12T17:23:05;44.58;;;27.85;;
46084;SDS011;31823;47.032;8.310;2023-02-12T17:25:31;50.28;;;27.42;;
46084;SDS011;31823;47.032;8.310;2023-02-12T17:27:58;47.95;;;28.75;;
46084;SDS011;31823;47.032;8.310;2023-02-12T17:30:24;50.33;;;28.58;;
46084;SDS011;31823;47.032;8.310;2023-02-12T17:32:50;49.35;;;27.60;;
46084;SDS011;31823;47.032;8.310;2023-02-12T17:35:16;49.88;;;29.50;;
46084;SDS011;31823;47.032;8.310;2023-02-12T17:37:42;50.22;;;28.85;;
46084;SDS011;31823;47.032;8.310;2023-02-12T17:40:08;47.33;;;29.20;;
46084;SDS011;31823;47.032;8.310;2023-02-12T17:42:35;48.67;;;28.75;;
46084;SDS011;31823;47.032;8.310;2023-02-12T17:45:01;51.72;;;28.63;;
46084;SDS011;31823;47.032;8.310;2023-02-12T17:47:26;57.28;;;31.20;;
46084;SDS011;31823;47.032;8.310;2023-02-12T17:49:53;50.25;;;30.25;;